sensor_id;sensor_type;location;lat;lon;timestamp;P1;durP1;ratioP1;P2;durP2;ratioP2
54261;SDS011;40174;52.364;6.452;2023-10-13T00:00:46;23.98;;;10.13;;
54261;SDS011;40174;52.364;6.452;2023-10-13T00:03:13;24.70;;;10.70;;
54261;SDS011;40174;52.364;6.452;2023-10-13T00:05:41;23.42;;;9.40;;
54261;SDS011;40174;52.364;6.452;2023-10-13T00:08:09;22.20;;;9.23;;
54261;SDS011;40174;52.364;6.452;2023-10-13T00:10:36;26.67;;;9.63;;
54261;SDS011;40174;52.364;6.452;2023-10-13T00:13:04;23.42;;;9.02;;
54261;SDS011;40174;52.364;6.452;2023-10-13T00:15:41;24.10;;;9.57;;
54261;SDS011;40174;52.364;6.452;2023-10-13T00:18:22;23.73;;;10.40;;
54261;SDS011;40174;52.364;6.452;2023-10-13T00:20:49;27.17;;;9.43;;
54261;SDS011;40174;52.364;6.452;2023-10-13T00:23:15;22.17;;;9.85;;
54261;SDS011;40174;52.364;6.452;2023-10-13T00:25:46;25.65;;;8.88;;
54261;SDS011;40174;52.364;6.452;2023-10-13T00:28:24;24.23;;;8.93;;
54261;SDS011;40174;52.364;6.452;2023-10-13T00:30:51;26.17;;;9.73;;
54261;SDS011;40174;52.364;6.452;2023-10-13T00:33:26;23.35;;;9.55;;
54261;SDS011;40174;52.364;6.452;2023-10-13T00:35:53;19.48;;;8.23;;
54261;SDS011;40174;52.364;6.452;2023-10-13T00:38:23;22.85;;;9.27;;
54261;SDS011;40174;52.364;6.452;2023-10-13T00:40:50;24.55;;;9.40;;
54261;SDS011;40174;52.364;6.452;2023-10-13T00:43:19;24.35;;;9.18;;
54261;SDS011;40174;52.364;6.452;2023-10-13T00:46:01;19.90;;;8.15;;
54261;SDS011;40174;52.364;6.452;2023-10-13T00:48:35;20.08;;;8.13;;
54261;SDS011;40174;52.364;6.452;2023-10-13T00:51:09;24.67;;;8.67;;
54261;SDS011;40174;52.364;6.452;2023-10-13T00:53:44;25.48;;;8.75;;
54261;SDS011;40174;52.364;6.452;2023-10-13T00:56:12;22.05;;;8.52;;
54261;SDS011;40174;52.364;6.452;2023-10-13T00:58:45;19.40;;;8.80;;
54261;SDS011;40174;52.364;6.452;2023-10-13T01:01:12;22.17;;;8.20;;
54261;SDS011;40174;52.364;6.452;2023-10-13T01:03:47;18.08;;;7.88;;
54261;SDS011;40174;52.364;6.452;2023-10-13T01:06:14;22.67;;;8.82;;
54261;SDS011;40174;52.364;6.452;2023-10-13T01:08:45;22.58;;;7.55;;
54261;SDS011;40174;52.364;6.452;2023-10-13T01:11:16;25.38;;;8.02;;
54261;SDS011;40174;52.364;6.452;2023-10-13T01:13:44;24.30;;;8.43;;
54261;SDS011;40174;52.364;6.452;2023-10-13T01:16:10;20.30;;;8.25;;
54261;SDS011;40174;52.364;6.452;2023-10-13T01:18:39;24.40;;;9.30;;
54261;SDS011;40174;52.364;6.452;2023-10-13T01:21:12;23.43;;;8.50;;
54261;SDS011;40174;52.364;6.452;2023-10-13T01:23:42;24.65;;;8.10;;
54261;SDS011;40174;52.364;6.452;2023-10-13T01:26:09;21.55;;;8.73;;
54261;SDS011;40174;52.364;6.452;2023-10-13T01:28:38;23.48;;;8.40;;
54261;SDS011;40174;52.364;6.452;2023-10-13T01:31:10;22.00;;;8.93;;
54261;SDS011;40174;52.364;6.452;2023-10-13T01:33:42;23.05;;;8.48;;
54261;SDS011;40174;52.364;6.452;2023-10-13T01:36:08;20.85;;;8.20;;
54261;SDS011;40174;52.364;6.452;2023-10-13T01:38:37;19.30;;;8.63;;
54261;SDS011;40174;52.364;6.452;2023-10-13T01:41:07;20.65;;;8.38;;
54261;SDS011;40174;52.364;6.452;2023-10-13T01:43:35;18.55;;;7.53;;
54261;SDS011;40174;52.364;6.452;2023-10-13T01:46:00;19.52;;;8.50;;
54261;SDS011;40174;52.364;6.452;2023-10-13T01:48:28;26.75;;;8.55;;
54261;SDS011;40174;52.364;6.452;2023-10-13T01:50:57;20.83;;;8.02;;
54261;SDS011;40174;52.364;6.452;2023-10-13T01:53:27;23.70;;;8.73;;
54261;SDS011;40174;52.364;6.452;2023-10-13T01:55:54;22.67;;;7.43;;
54261;SDS011;40174;52.364;6.452;2023-10-13T01:58:24;17.30;;;7.30;;
54261;SDS011;40174;52.364;6.452;2023-10-13T02:00:54;20.95;;;8.23;;
54261;SDS011;40174;52.364;6.452;2023-10-13T02:03:21;18.17;;;7.10;;
54261;SDS011;40174;52.364;6.452;2023-10-13T02:05:49;18.23;;;7.68;;
54261;SDS011;40174;52.364;6.452;2023-10-13T02:08:18;20.15;;;7.57;;
54261;SDS011;40174;52.364;6.452;2023-10-13T02:10:50;17.33;;;7.72;;
54261;SDS011;40174;52.364;6.452;2023-10-13T02:13:17;19.27;;;7.45;;
54261;SDS011;40174;52.364;6.452;2023-10-13T02:15:48;20.27;;;8.00;;
54261;SDS011;40174;52.364;6.452;2023-10-13T02:18:17;22.15;;;8.10;;
54261;SDS011;40174;52.364;6.452;2023-10-13T02:20:51;19.55;;;7.43;;
54261;SDS011;40174;52.364;6.452;2023-10-13T02:23:20;20.98;;;7.85;;
54261;SDS011;40174;52.364;6.452;2023-10-13T02:25:47;18.17;;;7.07;;
54261;SDS011;40174;52.364;6.452;2023-10-13T02:28:17;18.88;;;7.53;;
54261;SDS011;40174;52.364;6.452;2023-10-13T02:30:54;18.33;;;6.45;;
54261;SDS011;40174;52.364;6.452;2023-10-13T02:33:22;17.67;;;7.75;;
54261;SDS011;40174;52.364;6.452;2023-10-13T02:35:55;18.25;;;8.18;;
54261;SDS011;40174;52.364;6.452;2023-10-13T02:38:23;16.88;;;7.20;;
54261;SDS011;40174;52.364;6.452;2023-10-13T02:40:59;18.58;;;7.18;;
54261;SDS011;40174;52.364;6.452;2023-10-13T02:43:31;19.42;;;8.30;;
54261;SDS011;40174;52.364;6.452;2023-10-13T02:46:01;20.02;;;7.72;;
54261;SDS011;40174;52.364;6.452;2023-10-13T02:48:27;17.65;;;7.85;;
54261;SDS011;40174;52.364;6.452;2023-10-13T02:51:05;17.42;;;6.63;;
54261;SDS011;40174;52.364;6.452;2023-10-13T02:56:07;18.45;;;6.45;;
54261;SDS011;40174;52.364;6.452;2023-10-13T02:58:34;17.05;;;7.68;;
54261;SDS011;40174;52.364;6.452;2023-10-13T03:01:10;19.17;;;6.70;;
54261;SDS011;40174;52.364;6.452;2023-10-13T03:03:44;19.48;;;6.63;;
54261;SDS011;40174;52.364;6.452;2023-10-13T03:06:13;15.63;;;6.22;;
54261;SDS011;40174;52.364;6.452;2023-10-13T03:08:40;18.00;;;6.30;;
54261;SDS011;40174;52.364;6.452;2023-10-13T03:11:08;14.52;;;6.35;;
54261;SDS011;40174;52.364;6.452;2023-10-13T03:13:36;18.27;;;6.05;;
54261;SDS011;40174;52.364;6.452;2023-10-13T03:16:11;15.23;;;6.30;;
54261;SDS011;40174;52.364;6.452;2023-10-13T03:18:41;12.15;;;5.57;;
54261;SDS011;40174;52.364;6.452;2023-10-13T03:21:16;17.65;;;5.88;;
54261;SDS011;40174;52.364;6.452;2023-10-13T03:23:54;15.82;;;5.88;;
54261;SDS011;40174;52.364;6.452;2023-10-13T03:26:20;17.48;;;6.65;;
54261;SDS011;40174;52.364;6.452;2023-10-13T03:28:48;18.83;;;6.40;;
54261;SDS011;40174;52.364;6.452;2023-10-13T03:31:19;16.77;;;6.97;;
54261;SDS011;40174;52.364;6.452;2023-10-13T03:33:52;18.30;;;6.10;;
54261;SDS011;40174;52.364;6.452;2023-10-13T03:36:27;18.33;;;5.95;;
54261;SDS011;40174;52.364;6.452;2023-10-13T03:39:08;16.10;;;6.18;;
54261;SDS011;40174;52.364;6.452;2023-10-13T03:41:36;12.32;;;5.75;;
54261;SDS011;40174;52.364;6.452;2023-10-13T03:44:05;12.95;;;5.25;;
54261;SDS011;40174;52.364;6.452;2023-10-13T03:46:40;12.63;;;5.35;;
54261;SDS011;40174;52.364;6.452;2023-10-13T03:49:07;17.35;;;5.75;;
54261;SDS011;40174;52.364;6.452;2023-10-13T03:51:38;13.82;;;5.78;;
54261;SDS011;40174;52.364;6.452;2023-10-13T03:54:05;16.00;;;6.20;;
54261;SDS011;40174;52.364;6.452;2023-10-13T03:56:33;13.75;;;5.22;;
54261;SDS011;40174;52.364;6.452;2023-10-13T03:59:05;12.93;;;6.30;;
54261;SDS011;40174;52.364;6.452;2023-10-13T04:01:35;17.25;;;5.55;;
54261;SDS011;40174;52.364;6.452;2023-10-13T04:04:12;12.75;;;5.07;;
54261;SDS011;40174;52.364;6.452;2023-10-13T04:06:40;19.35;;;6.38;;
54261;SDS011;40174;52.364;6.452;2023-10-13T04:09:17;12.30;;;5.13;;
54261;SDS011;40174;52.364;6.452;2023-10-13T04:12:03;14.98;;;4.97;;
54261;SDS011;40174;52.364;6.452;2023-10-13T04:15:09;15.45;;;5.32;;
54261;SDS011;40174;52.364;6.452;2023-10-13T04:17:43;11.48;;;5.28;;
54261;SDS011;40174;52.364;6.452;2023-10-13T04:20:12;13.57;;;5.75;;
54261;SDS011;40174;52.364;6.452;2023-10-13T04:22:51;12.50;;;5.15;;
54261;SDS011;40174;52.364;6.452;2023-10-13T04:25:35;12.77;;;5.72;;
54261;SDS011;40174;52.364;6.452;2023-10-13T04:28:17;14.23;;;6.63;;
54261;SDS011;40174;52.364;6.452;2023-10-13T04:31:00;16.75;;;5.47;;
54261;SDS011;40174;52.364;6.452;2023-10-13T04:33:37;12.20;;;6.10;;
54261;SDS011;40174;52.364;6.452;2023-10-13T04:36:10;13.40;;;4.90;;
54261;SDS011;40174;52.364;6.452;2023-10-13T04:38:43;17.20;;;6.18;;
54261;SDS011;40174;52.364;6.452;2023-10-13T04:41:21;17.45;;;6.38;;
54261;SDS011;40174;52.364;6.452;2023-10-13T04:43:50;12.25;;;5.55;;
54261;SDS011;40174;52.364;6.452;2023-10-13T04:46:23;9.45;;;4.82;;
54261;SDS011;40174;52.364;6.452;2023-10-13T04:49:05;14.63;;;6.25;;
54261;SDS011;40174;52.364;6.452;2023-10-13T04:51:52;11.27;;;5.28;;
54261;SDS011;40174;52.364;6.452;2023-10-13T04:54:25;13.57;;;5.30;;
54261;SDS011;40174;52.364;6.452;2023-10-13T04:56:51;11.35;;;5.63;;
54261;SDS011;40174;52.364;6.452;2023-10-13T04:59:32;10.05;;;4.18;;
54261;SDS011;40174;52.364;6.452;2023-10-13T05:02:02;10.93;;;4.72;;
54261;SDS011;40174;52.364;6.452;2023-10-13T05:04:47;11.00;;;4.72;;
54261;SDS011;40174;52.364;6.452;2023-10-13T05:07:32;11.30;;;4.38;;
54261;SDS011;40174;52.364;6.452;2023-10-13T05:13:02;8.65;;;4.28;;
54261;SDS011;40174;52.364;6.452;2023-10-13T05:15:47;11.85;;;5.13;;
54261;SDS011;40174;52.364;6.452;2023-10-13T05:18:32;10.05;;;4.43;;
54261;SDS011;40174;52.364;6.452;2023-10-13T05:21:16;13.20;;;4.50;;
54261;SDS011;40174;52.364;6.452;2023-10-13T05:24:02;9.30;;;4.32;;
54261;SDS011;40174;52.364;6.452;2023-10-13T05:26:55;11.82;;;4.40;;
54261;SDS011;40174;52.364;6.452;2023-10-13T05:29:40;9.27;;;4.00;;
54261;SDS011;40174;52.364;6.452;2023-10-13T05:32:24;10.10;;;4.03;;
54261;SDS011;40174;52.364;6.452;2023-10-13T05:35:09;10.40;;;3.73;;
54261;SDS011;40174;52.364;6.452;2023-10-13T05:37:53;10.57;;;3.40;;
54261;SDS011;40174;52.364;6.452;2023-10-13T05:40:39;7.88;;;2.90;;
54261;SDS011;40174;52.364;6.452;2023-10-13T05:46:07;9.82;;;3.00;;
54261;SDS011;40174;52.364;6.452;2023-10-13T05:49:01;7.38;;;3.08;;
54261;SDS011;40174;52.364;6.452;2023-10-13T05:51:44;7.85;;;3.13;;
54261;SDS011;40174;52.364;6.452;2023-10-13T05:54:13;9.55;;;3.55;;
54261;SDS011;40174;52.364;6.452;2023-10-13T05:56:59;7.80;;;2.95;;
54261;SDS011;40174;52.364;6.452;2023-10-13T05:59:43;6.97;;;2.55;;
54261;SDS011;40174;52.364;6.452;2023-10-13T06:02:30;9.50;;;2.85;;
54261;SDS011;40174;52.364;6.452;2023-10-13T06:05:14;7.72;;;3.42;;
54261;SDS011;40174;52.364;6.452;2023-10-13T06:07:59;8.80;;;2.72;;
54261;SDS011;40174;52.364;6.452;2023-10-13T06:10:43;8.52;;;3.88;;
54261;SDS011;40174;52.364;6.452;2023-10-13T06:13:30;11.10;;;3.20;;
54261;SDS011;40174;52.364;6.452;2023-10-13T06:18:59;8.15;;;3.28;;
54261;SDS011;40174;52.364;6.452;2023-10-13T06:21:44;11.02;;;4.18;;
54261;SDS011;40174;52.364;6.452;2023-10-13T06:24:29;8.52;;;3.65;;
54261;SDS011;40174;52.364;6.452;2023-10-13T06:27:14;11.73;;;2.93;;
54261;SDS011;40174;52.364;6.452;2023-10-13T06:30:00;8.55;;;2.90;;
54261;SDS011;40174;52.364;6.452;2023-10-13T06:32:28;11.40;;;2.67;;
54261;SDS011;40174;52.364;6.452;2023-10-13T06:34:55;10.80;;;2.95;;
54261;SDS011;40174;52.364;6.452;2023-10-13T06:37:23;15.70;;;3.25;;
54261;SDS011;40174;52.364;6.452;2023-10-13T06:39:51;6.60;;;2.65;;
54261;SDS011;40174;52.364;6.452;2023-10-13T06:42:18;6.53;;;2.72;;
54261;SDS011;40174;52.364;6.452;2023-10-13T06:44:45;9.68;;;3.00;;
54261;SDS011;40174;52.364;6.452;2023-10-13T06:47:13;8.73;;;2.80;;
54261;SDS011;40174;52.364;6.452;2023-10-13T06:49:40;7.10;;;2.25;;
54261;SDS011;40174;52.364;6.452;2023-10-13T06:52:08;9.75;;;2.50;;
54261;SDS011;40174;52.364;6.452;2023-10-13T06:54:35;8.32;;;2.60;;
54261;SDS011;40174;52.364;6.452;2023-10-13T06:57:03;9.77;;;2.90;;
54261;SDS011;40174;52.364;6.452;2023-10-13T06:59:32;6.90;;;2.67;;
54261;SDS011;40174;52.364;6.452;2023-10-13T07:02:03;6.18;;;2.13;;
54261;SDS011;40174;52.364;6.452;2023-10-13T07:04:33;9.63;;;2.65;;
54261;SDS011;40174;52.364;6.452;2023-10-13T07:06:59;5.78;;;2.40;;
54261;SDS011;40174;52.364;6.452;2023-10-13T07:09:31;8.02;;;2.28;;
54261;SDS011;40174;52.364;6.452;2023-10-13T07:12:14;12.25;;;3.00;;
54261;SDS011;40174;52.364;6.452;2023-10-13T07:14:45;7.80;;;3.13;;
54261;SDS011;40174;52.364;6.452;2023-10-13T07:17:17;8.23;;;3.00;;
54261;SDS011;40174;52.364;6.452;2023-10-13T07:19:50;9.25;;;2.75;;
54261;SDS011;40174;52.364;6.452;2023-10-13T07:22:21;6.93;;;2.75;;
54261;SDS011;40174;52.364;6.452;2023-10-13T07:24:51;7.57;;;2.65;;
54261;SDS011;40174;52.364;6.452;2023-10-13T07:27:18;8.13;;;3.00;;
54261;SDS011;40174;52.364;6.452;2023-10-13T07:29:49;8.75;;;2.65;;
54261;SDS011;40174;52.364;6.452;2023-10-13T07:32:22;9.00;;;2.78;;
54261;SDS011;40174;52.364;6.452;2023-10-13T07:34:55;8.77;;;2.22;;
54261;SDS011;40174;52.364;6.452;2023-10-13T07:37:22;8.32;;;3.40;;
54261;SDS011;40174;52.364;6.452;2023-10-13T07:39:54;7.35;;;2.95;;
54261;SDS011;40174;52.364;6.452;2023-10-13T07:42:23;9.98;;;3.05;;
54261;SDS011;40174;52.364;6.452;2023-10-13T07:44:55;9.45;;;3.40;;
54261;SDS011;40174;52.364;6.452;2023-10-13T07:47:22;7.15;;;2.53;;
54261;SDS011;40174;52.364;6.452;2023-10-13T07:49:49;6.18;;;2.80;;
54261;SDS011;40174;52.364;6.452;2023-10-13T07:52:18;6.45;;;2.65;;
54261;SDS011;40174;52.364;6.452;2023-10-13T07:57:25;9.52;;;3.20;;
54261;SDS011;40174;52.364;6.452;2023-10-13T07:59:54;8.00;;;3.38;;
54261;SDS011;40174;52.364;6.452;2023-10-13T08:02:36;7.65;;;2.20;;
54261;SDS011;40174;52.364;6.452;2023-10-13T08:05:16;8.13;;;2.60;;
54261;SDS011;40174;52.364;6.452;2023-10-13T08:07:52;8.30;;;3.03;;
54261;SDS011;40174;52.364;6.452;2023-10-13T08:10:19;8.52;;;2.78;;
54261;SDS011;40174;52.364;6.452;2023-10-13T08:12:50;6.60;;;2.50;;
54261;SDS011;40174;52.364;6.452;2023-10-13T08:15:17;6.30;;;2.88;;
54261;SDS011;40174;52.364;6.452;2023-10-13T08:17:57;8.63;;;2.90;;
54261;SDS011;40174;52.364;6.452;2023-10-13T08:20:28;9.13;;;2.85;;
54261;SDS011;40174;52.364;6.452;2023-10-13T08:22:56;7.97;;;2.70;;
54261;SDS011;40174;52.364;6.452;2023-10-13T08:25:38;8.75;;;2.38;;
54261;SDS011;40174;52.364;6.452;2023-10-13T08:28:19;8.45;;;2.90;;
54261;SDS011;40174;52.364;6.452;2023-10-13T08:31:03;7.88;;;2.13;;
54261;SDS011;40174;52.364;6.452;2023-10-13T08:33:39;10.27;;;2.67;;
54261;SDS011;40174;52.364;6.452;2023-10-13T08:36:12;11.43;;;2.58;;
54261;SDS011;40174;52.364;6.452;2023-10-13T08:38:54;5.60;;;2.40;;
54261;SDS011;40174;52.364;6.452;2023-10-13T08:41:21;6.10;;;2.50;;
54261;SDS011;40174;52.364;6.452;2023-10-13T08:44:01;8.52;;;3.08;;
54261;SDS011;40174;52.364;6.452;2023-10-13T08:46:30;4.20;;;2.20;;
54261;SDS011;40174;52.364;6.452;2023-10-13T08:49:16;8.75;;;2.70;;
54261;SDS011;40174;52.364;6.452;2023-10-13T08:51:48;8.27;;;2.72;;
54261;SDS011;40174;52.364;6.452;2023-10-13T08:54:31;7.85;;;2.92;;
54261;SDS011;40174;52.364;6.452;2023-10-13T08:57:11;9.70;;;3.17;;
54261;SDS011;40174;52.364;6.452;2023-10-13T08:59:58;11.90;;;3.22;;
54261;SDS011;40174;52.364;6.452;2023-10-13T09:02:45;8.30;;;3.05;;
54261;SDS011;40174;52.364;6.452;2023-10-13T09:05:45;12.82;;;2.70;;
54261;SDS011;40174;52.364;6.452;2023-10-13T09:08:26;6.15;;;2.83;;
54261;SDS011;40174;52.364;6.452;2023-10-13T09:11:02;6.47;;;3.10;;
54261;SDS011;40174;52.364;6.452;2023-10-13T09:13:37;8.20;;;2.55;;
54261;SDS011;40174;52.364;6.452;2023-10-13T09:16:10;9.95;;;3.38;;
54261;SDS011;40174;52.364;6.452;2023-10-13T09:18:42;11.05;;;3.10;;
54261;SDS011;40174;52.364;6.452;2023-10-13T09:21:11;11.18;;;3.15;;
54261;SDS011;40174;52.364;6.452;2023-10-13T09:23:56;5.88;;;2.65;;
54261;SDS011;40174;52.364;6.452;2023-10-13T09:26:38;6.55;;;2.83;;
54261;SDS011;40174;52.364;6.452;2023-10-13T09:29:13;12.38;;;2.42;;
54261;SDS011;40174;52.364;6.452;2023-10-13T09:31:43;10.32;;;2.55;;
54261;SDS011;40174;52.364;6.452;2023-10-13T09:34:10;8.00;;;2.60;;
54261;SDS011;40174;52.364;6.452;2023-10-13T09:36:37;13.48;;;3.17;;
54261;SDS011;40174;52.364;6.452;2023-10-13T09:39:03;12.95;;;2.80;;
54261;SDS011;40174;52.364;6.452;2023-10-13T09:41:40;7.78;;;2.60;;
54261;SDS011;40174;52.364;6.452;2023-10-13T09:44:05;6.25;;;2.42;;
54261;SDS011;40174;52.364;6.452;2023-10-13T09:46:35;8.68;;;2.15;;
54261;SDS011;40174;52.364;6.452;2023-10-13T09:49:09;9.60;;;2.58;;
54261;SDS011;40174;52.364;6.452;2023-10-13T09:51:47;10.52;;;2.80;;
54261;SDS011;40174;52.364;6.452;2023-10-13T09:54:14;11.85;;;2.67;;
54261;SDS011;40174;52.364;6.452;2023-10-13T09:56:50;9.30;;;2.67;;
54261;SDS011;40174;52.364;6.452;2023-10-13T09:59:21;13.13;;;3.60;;
54261;SDS011;40174;52.364;6.452;2023-10-13T10:01:50;11.52;;;2.72;;
54261;SDS011;40174;52.364;6.452;2023-10-13T10:04:23;11.55;;;2.90;;
54261;SDS011;40174;52.364;6.452;2023-10-13T10:06:53;11.05;;;3.00;;
54261;SDS011;40174;52.364;6.452;2023-10-13T10:09:25;8.30;;;3.03;;
54261;SDS011;40174;52.364;6.452;2023-10-13T10:12:12;9.90;;;2.70;;
54261;SDS011;40174;52.364;6.452;2023-10-13T10:14:52;7.75;;;2.53;;
54261;SDS011;40174;52.364;6.452;2023-10-13T10:17:38;10.35;;;3.42;;
54261;SDS011;40174;52.364;6.452;2023-10-13T10:20:06;6.93;;;2.97;;
54261;SDS011;40174;52.364;6.452;2023-10-13T10:22:55;10.13;;;2.38;;
54261;SDS011;40174;52.364;6.452;2023-10-13T10:25:28;10.82;;;3.00;;
54261;SDS011;40174;52.364;6.452;2023-10-13T10:28:02;8.23;;;2.67;;
54261;SDS011;40174;52.364;6.452;2023-10-13T10:30:32;10.95;;;2.63;;
54261;SDS011;40174;52.364;6.452;2023-10-13T10:32:59;11.93;;;2.63;;
54261;SDS011;40174;52.364;6.452;2023-10-13T10:35:33;11.95;;;3.35;;
54261;SDS011;40174;52.364;6.452;2023-10-13T10:38:06;8.85;;;2.55;;
54261;SDS011;40174;52.364;6.452;2023-10-13T10:40:50;11.68;;;3.58;;
54261;SDS011;40174;52.364;6.452;2023-10-13T10:43:24;9.25;;;3.13;;
54261;SDS011;40174;52.364;6.452;2023-10-13T10:45:53;6.53;;;3.00;;
54261;SDS011;40174;52.364;6.452;2023-10-13T10:48:25;12.75;;;2.95;;
54261;SDS011;40174;52.364;6.452;2023-10-13T10:50:57;8.52;;;3.17;;
54261;SDS011;40174;52.364;6.452;2023-10-13T10:53:24;8.93;;;3.05;;
54261;SDS011;40174;52.364;6.452;2023-10-13T10:56:04;9.35;;;2.58;;
54261;SDS011;40174;52.364;6.452;2023-10-13T11:01:09;10.18;;;3.25;;
54261;SDS011;40174;52.364;6.452;2023-10-13T11:03:37;6.05;;;2.50;;
54261;SDS011;40174;52.364;6.452;2023-10-13T11:06:11;9.13;;;3.00;;
54261;SDS011;40174;52.364;6.452;2023-10-13T11:08:45;9.88;;;3.60;;
54261;SDS011;40174;52.364;6.452;2023-10-13T11:11:27;12.25;;;3.42;;
54261;SDS011;40174;52.364;6.452;2023-10-13T11:13:57;7.60;;;2.88;;
54261;SDS011;40174;52.364;6.452;2023-10-13T11:16:44;8.70;;;3.22;;
54261;SDS011;40174;52.364;6.452;2023-10-13T11:19:16;9.80;;;2.95;;
54261;SDS011;40174;52.364;6.452;2023-10-13T11:21:46;12.65;;;3.05;;
54261;SDS011;40174;52.364;6.452;2023-10-13T11:24:13;12.65;;;3.30;;
54261;SDS011;40174;52.364;6.452;2023-10-13T11:26:42;9.20;;;2.88;;
54261;SDS011;40174;52.364;6.452;2023-10-13T11:29:16;12.02;;;2.88;;
54261;SDS011;40174;52.364;6.452;2023-10-13T11:31:45;7.00;;;2.67;;
54261;SDS011;40174;52.364;6.452;2023-10-13T11:34:15;7.95;;;2.78;;
54261;SDS011;40174;52.364;6.452;2023-10-13T11:36:42;12.65;;;3.08;;
54261;SDS011;40174;52.364;6.452;2023-10-13T11:39:09;11.65;;;3.00;;
54261;SDS011;40174;52.364;6.452;2023-10-13T11:41:42;10.60;;;2.92;;
54261;SDS011;40174;52.364;6.452;2023-10-13T11:44:17;9.60;;;2.70;;
54261;SDS011;40174;52.364;6.452;2023-10-13T11:47:08;5.72;;;2.47;;
54261;SDS011;40174;52.364;6.452;2023-10-13T11:50:12;8.70;;;3.00;;
54261;SDS011;40174;52.364;6.452;2023-10-13T11:52:39;9.38;;;3.35;;
54261;SDS011;40174;52.364;6.452;2023-10-13T11:55:06;7.88;;;2.60;;
54261;SDS011;40174;52.364;6.452;2023-10-13T11:57:32;12.35;;;3.47;;
54261;SDS011;40174;52.364;6.452;2023-10-13T12:00:00;10.25;;;2.60;;
54261;SDS011;40174;52.364;6.452;2023-10-13T12:02:41;8.50;;;2.60;;
54261;SDS011;40174;52.364;6.452;2023-10-13T12:05:25;10.88;;;3.00;;
54261;SDS011;40174;52.364;6.452;2023-10-13T12:08:03;7.57;;;2.70;;
54261;SDS011;40174;52.364;6.452;2023-10-13T12:10:32;9.20;;;3.38;;
54261;SDS011;40174;52.364;6.452;2023-10-13T12:13:01;6.88;;;2.85;;
54261;SDS011;40174;52.364;6.452;2023-10-13T12:15:37;7.90;;;2.63;;
54261;SDS011;40174;52.364;6.452;2023-10-13T12:18:14;10.95;;;3.13;;
54261;SDS011;40174;52.364;6.452;2023-10-13T12:20:41;14.60;;;2.67;;
54261;SDS011;40174;52.364;6.452;2023-10-13T12:23:11;12.25;;;2.75;;
54261;SDS011;40174;52.364;6.452;2023-10-13T12:25:42;8.75;;;3.45;;
54261;SDS011;40174;52.364;6.452;2023-10-13T12:28:25;9.82;;;3.28;;
54261;SDS011;40174;52.364;6.452;2023-10-13T12:30:55;7.78;;;2.75;;
54261;SDS011;40174;52.364;6.452;2023-10-13T12:33:24;9.00;;;3.00;;
54261;SDS011;40174;52.364;6.452;2023-10-13T12:35:58;9.32;;;3.25;;
54261;SDS011;40174;52.364;6.452;2023-10-13T12:38:32;12.70;;;2.63;;
54261;SDS011;40174;52.364;6.452;2023-10-13T12:41:43;8.82;;;3.42;;
54261;SDS011;40174;52.364;6.452;2023-10-13T12:44:27;7.97;;;2.92;;
54261;SDS011;40174;52.364;6.452;2023-10-13T12:47:13;9.55;;;2.83;;
54261;SDS011;40174;52.364;6.452;2023-10-13T12:52:32;11.50;;;3.00;;
54261;SDS011;40174;52.364;6.452;2023-10-13T12:54:59;7.60;;;2.88;;
54261;SDS011;40174;52.364;6.452;2023-10-13T12:57:32;6.35;;;2.30;;
54261;SDS011;40174;52.364;6.452;2023-10-13T12:59:59;7.05;;;2.78;;
54261;SDS011;40174;52.364;6.452;2023-10-13T13:02:42;10.07;;;2.78;;
54261;SDS011;40174;52.364;6.452;2023-10-13T13:05:09;9.85;;;2.95;;
54261;SDS011;40174;52.364;6.452;2023-10-13T13:07:38;5.28;;;2.65;;
54261;SDS011;40174;52.364;6.452;2023-10-13T13:10:12;10.05;;;3.30;;
54261;SDS011;40174;52.364;6.452;2023-10-13T13:12:39;6.57;;;2.65;;
54261;SDS011;40174;52.364;6.452;2023-10-13T13:15:06;8.57;;;3.13;;
54261;SDS011;40174;52.364;6.452;2023-10-13T13:17:34;12.30;;;2.75;;
54261;SDS011;40174;52.364;6.452;2023-10-13T13:20:02;10.90;;;2.72;;
54261;SDS011;40174;52.364;6.452;2023-10-13T13:22:36;9.10;;;3.25;;
54261;SDS011;40174;52.364;6.452;2023-10-13T13:25:03;12.98;;;3.38;;
54261;SDS011;40174;52.364;6.452;2023-10-13T13:27:33;9.70;;;3.70;;
54261;SDS011;40174;52.364;6.452;2023-10-13T13:29:59;11.93;;;3.47;;
54261;SDS011;40174;52.364;6.452;2023-10-13T13:32:27;11.88;;;3.22;;
54261;SDS011;40174;52.364;6.452;2023-10-13T13:34:53;10.23;;;3.58;;
54261;SDS011;40174;52.364;6.452;2023-10-13T13:37:30;9.23;;;2.90;;
54261;SDS011;40174;52.364;6.452;2023-10-13T13:39:57;11.10;;;3.42;;
54261;SDS011;40174;52.364;6.452;2023-10-13T13:42:39;9.48;;;2.97;;
54261;SDS011;40174;52.364;6.452;2023-10-13T13:45:06;9.73;;;3.15;;
54261;SDS011;40174;52.364;6.452;2023-10-13T13:47:44;11.20;;;2.78;;
54261;SDS011;40174;52.364;6.452;2023-10-13T13:50:10;14.23;;;3.20;;
54261;SDS011;40174;52.364;6.452;2023-10-13T13:52:43;7.53;;;3.22;;
54261;SDS011;40174;52.364;6.452;2023-10-13T13:55:12;9.95;;;3.00;;
54261;SDS011;40174;52.364;6.452;2023-10-13T13:57:42;11.50;;;3.35;;
54261;SDS011;40174;52.364;6.452;2023-10-13T14:00:09;9.73;;;2.92;;
54261;SDS011;40174;52.364;6.452;2023-10-13T14:02:41;13.90;;;3.10;;
54261;SDS011;40174;52.364;6.452;2023-10-13T14:05:12;10.70;;;3.22;;
54261;SDS011;40174;52.364;6.452;2023-10-13T14:07:41;9.52;;;3.17;;
54261;SDS011;40174;52.364;6.452;2023-10-13T14:10:09;11.60;;;3.10;;
54261;SDS011;40174;52.364;6.452;2023-10-13T14:12:44;9.52;;;3.97;;
54261;SDS011;40174;52.364;6.452;2023-10-13T14:15:10;12.10;;;3.45;;
54261;SDS011;40174;52.364;6.452;2023-10-13T14:17:49;7.63;;;3.33;;
54261;SDS011;40174;52.364;6.452;2023-10-13T14:20:15;8.25;;;3.00;;
54261;SDS011;40174;52.364;6.452;2023-10-13T14:22:44;12.15;;;3.38;;
54261;SDS011;40174;52.364;6.452;2023-10-13T14:25:14;10.07;;;3.00;;
54261;SDS011;40174;52.364;6.452;2023-10-13T14:27:41;10.90;;;3.30;;
54261;SDS011;40174;52.364;6.452;2023-10-13T14:30:08;13.23;;;3.50;;
54261;SDS011;40174;52.364;6.452;2023-10-13T14:32:35;21.13;;;3.40;;
54261;SDS011;40174;52.364;6.452;2023-10-13T14:35:06;12.55;;;3.75;;
54261;SDS011;40174;52.364;6.452;2023-10-13T14:37:39;9.80;;;3.40;;
54261;SDS011;40174;52.364;6.452;2023-10-13T14:40:07;16.23;;;3.70;;
54261;SDS011;40174;52.364;6.452;2023-10-13T14:42:39;15.32;;;3.28;;
54261;SDS011;40174;52.364;6.452;2023-10-13T14:45:06;12.25;;;2.95;;
54261;SDS011;40174;52.364;6.452;2023-10-13T14:47:37;7.50;;;3.30;;
54261;SDS011;40174;52.364;6.452;2023-10-13T14:50:05;12.10;;;2.83;;
54261;SDS011;40174;52.364;6.452;2023-10-13T14:52:33;11.95;;;2.85;;
54261;SDS011;40174;52.364;6.452;2023-10-13T14:55:00;14.60;;;3.47;;
54261;SDS011;40174;52.364;6.452;2023-10-13T14:57:32;9.80;;;2.85;;
54261;SDS011;40174;52.364;6.452;2023-10-13T15:00:05;8.55;;;3.05;;
54261;SDS011;40174;52.364;6.452;2023-10-13T15:02:38;8.52;;;2.45;;
54261;SDS011;40174;52.364;6.452;2023-10-13T15:05:08;8.68;;;3.10;;
54261;SDS011;40174;52.364;6.452;2023-10-13T15:07:41;10.35;;;3.22;;
54261;SDS011;40174;52.364;6.452;2023-10-13T15:10:10;10.30;;;3.78;;
54261;SDS011;40174;52.364;6.452;2023-10-13T15:12:40;9.95;;;2.67;;
54261;SDS011;40174;52.364;6.452;2023-10-13T15:15:09;9.63;;;2.50;;
54261;SDS011;40174;52.364;6.452;2023-10-13T15:17:39;11.05;;;3.15;;
54261;SDS011;40174;52.364;6.452;2023-10-13T15:20:06;10.02;;;2.85;;
54261;SDS011;40174;52.364;6.452;2023-10-13T15:22:35;8.70;;;3.10;;
54261;SDS011;40174;52.364;6.452;2023-10-13T15:25:03;5.90;;;2.75;;
54261;SDS011;40174;52.364;6.452;2023-10-13T15:27:42;9.60;;;2.85;;
54261;SDS011;40174;52.364;6.452;2023-10-13T15:30:17;12.50;;;3.30;;
54261;SDS011;40174;52.364;6.452;2023-10-13T15:32:48;8.55;;;3.00;;
54261;SDS011;40174;52.364;6.452;2023-10-13T15:35:16;8.20;;;2.85;;